createdAt,value
2023-02-26T00:01:32.931Z,100375.63
2023-02-26T00:04:03.318Z,100371.22
2023-02-26T00:06:34.237Z,100380.69
2023-02-26T00:09:01.596Z,100383.19
2023-02-26T00:11:29.165Z,100373.72
2023-02-26T00:13:56.770Z,100393.28
2023-02-26T00:16:26.902Z,100400.09
2023-02-26T00:18:55.839Z,100390.00
2023-02-26T00:21:24.887Z,100397.94
2023-02-26T00:23:52.687Z,100410.75
2023-02-26T00:26:20.552Z,100412.38
2023-02-26T00:28:48.077Z,100409.88
2023-02-26T00:31:16.924Z,100417.84
2023-02-26T00:33:45.321Z,100418.16
2023-02-26T00:36:18.098Z,100415.88
2023-02-26T00:38:59.481Z,100424.03
2023-02-26T00:41:26.937Z,100423.41
2023-02-26T00:43:54.234Z,100432.22
2023-02-26T00:46:47.432Z,100432.97
2023-02-26T00:49:32.034Z,100433.56
2023-02-26T00:52:02.990Z,100434.44
2023-02-26T00:54:31.754Z,100434.44
2023-02-26T00:57:00.269Z,100451.47
2023-02-26T00:59:27.208Z,100452.47
2023-02-26T01:01:54.144Z,100452.53
2023-02-26T01:04:23.346Z,100450.94
2023-02-26T01:06:57.990Z,100446.84
2023-02-26T01:09:35.256Z,100461.59
2023-02-26T01:12:10.038Z,100457.25
2023-02-26T01:14:37.967Z,100453.00
2023-02-26T01:17:32.215Z,100462.41
2023-02-26T01:20:10.244Z,100466.00
2023-02-26T01:22:57.476Z,100460.03
2023-02-26T01:25:50.611Z,100466.25
2023-02-26T01:28:18.328Z,100470.66
2023-02-26T01:30:46.270Z,100473.38
2023-02-26T01:33:48.099Z,100478.78
2023-02-26T01:36:23.497Z,100471.38
2023-02-26T01:39:51.645Z,100481.59
2023-02-26T01:42:24.086Z,100479.91
2023-02-26T01:45:05.567Z,100476.59
2023-02-26T01:47:52.122Z,100480.19
2023-02-26T01:50:29.795Z,100485.38
2023-02-26T01:53:25.961Z,100487.84
2023-02-26T01:56:00.603Z,100490.19
2023-02-26T01:58:33.521Z,100490.09
2023-02-26T02:01:02.406Z,100499.50
2023-02-26T02:03:34.706Z,100500.47
2023-02-26T02:06:09.282Z,100497.16
2023-02-26T02:08:36.638Z,100510.16
2023-02-26T02:11:07.544Z,100510.28
2023-02-26T02:13:40.371Z,100510.44
2023-02-26T02:17:03.233Z,100514.69
2023-02-26T02:20:10.251Z,100523.34
2023-02-26T02:23:11.361Z,100526.88
2023-02-26T02:26:07.034Z,100527.91
2023-02-26T02:29:21.735Z,100536.56
2023-02-26T02:32:04.760Z,100540.03
2023-02-26T02:34:50.207Z,100547.75
2023-02-26T02:37:25.973Z,100538.25
2023-02-26T02:40:29.209Z,100542.22
2023-02-26T02:43:04.015Z,100549.94
2023-02-26T02:45:57.063Z,100561.09
2023-02-26T02:48:35.111Z,100564.63
2023-02-26T02:51:11.650Z,100560.28
2023-02-26T02:53:44.467Z,100566.00
2023-02-26T02:56:18.305Z,100575.41
2023-02-26T02:58:51.669Z,100569.31
2023-02-26T03:01:21.956Z,100576.97
2023-02-26T03:04:07.970Z,100575.88
2023-02-26T03:06:35.981Z,100569.13
2023-02-26T03:09:06.393Z,100580.13
2023-02-26T03:11:33.843Z,100589.59
2023-02-26T03:14:01.559Z,100595.63
2023-02-26T03:17:15.674Z,100592.72
2023-02-26T03:19:57.258Z,100599.63
2023-02-26T03:23:04.769Z,100604.06
2023-02-26T03:25:48.582Z,100604.63
2023-02-26T03:28:48.649Z,100602.81
2023-02-26T03:31:29.473Z,100606.19
2023-02-26T03:34:41.569Z,100612.28
2023-02-26T03:37:20.076Z,100622.59
2023-02-26T03:39:54.711Z,100631.28
2023-02-26T03:42:52.431Z,100631.28
2023-02-26T03:45:32.170Z,100644.84
2023-02-26T03:48:01.662Z,100644.47
2023-02-26T03:50:37.219Z,100641.75
2023-02-26T03:53:10.448Z,100649.47
2023-02-26T03:55:48.086Z,100656.44
2023-02-26T03:58:15.164Z,100665.13
2023-02-26T04:00:47.095Z,100675.97
2023-02-26T04:03:27.219Z,100668.97
2023-02-26T04:05:54.960Z,100678.59
2023-02-26T04:08:23.570Z,100672.03
2023-02-26T04:11:06.274Z,100678.03
2023-02-26T04:13:34.961Z,100679.88
2023-02-26T04:16:01.934Z,100686.78
2023-02-26T04:18:28.842Z,100689.41
2023-02-26T04:20:55.957Z,100691.97
2023-02-26T04:23:22.970Z,100698.75
2023-02-26T04:25:49.912Z,100695.22
2023-02-26T04:28:17.115Z,100701.16
2023-02-26T04:30:44.683Z,100703.75
2023-02-26T04:33:11.589Z,100704.69
2023-02-26T04:35:38.804Z,100702.13
2023-02-26T04:38:05.810Z,100714.91
2023-02-26T04:40:33.019Z,100713.13
2023-02-26T04:42:59.989Z,100723.50
2023-02-26T04:45:26.977Z,100731.28
2023-02-26T04:47:53.856Z,100725.97
2023-02-26T04:50:20.984Z,100726.88
2023-02-26T04:52:47.901Z,100731.19
2023-02-26T04:55:14.850Z,100732.16
2023-02-26T04:57:41.779Z,100733.25
2023-02-26T05:00:09.751Z,100738.41
2023-02-26T05:02:36.816Z,100747.00
2023-02-26T05:05:04.289Z,100746.28
2023-02-26T05:07:31.286Z,100751.41
2023-02-26T05:09:58.456Z,100756.31
2023-02-26T05:12:25.678Z,100751.84
2023-02-26T05:14:52.564Z,100767.88
2023-02-26T05:17:19.502Z,100759.47
2023-02-26T05:19:46.381Z,100772.31
2023-02-26T05:22:13.978Z,100771.34
2023-02-26T05:24:41.203Z,100770.47
2023-02-26T05:27:08.282Z,100774.00
2023-02-26T05:29:35.334Z,100783.56
2023-02-26T05:32:03.827Z,100786.75
2023-02-26T05:34:30.775Z,100791.00
2023-02-26T05:36:57.694Z,100798.00
2023-02-26T05:39:24.677Z,100791.19
2023-02-26T05:41:53.196Z,100799.84
2023-02-26T05:44:20.069Z,100802.47
2023-02-26T05:46:46.995Z,100812.75
2023-02-26T05:49:14.013Z,100807.59
2023-02-26T05:51:42.868Z,100813.88
2023-02-26T05:54:10.520Z,100813.41
2023-02-26T05:56:37.422Z,100824.72
2023-02-26T05:59:04.570Z,100831.53
2023-02-26T06:01:31.767Z,100822.72
2023-02-26T06:03:58.714Z,100832.91
2023-02-26T06:06:27.110Z,100833.81
2023-02-26T06:08:54.188Z,100833.97
2023-02-26T06:11:21.088Z,100829.84
2023-02-26T06:13:48.597Z,100839.41
2023-02-26T06:16:15.779Z,100848.97
2023-02-26T06:18:42.649Z,100853.16
2023-02-26T06:21:09.563Z,100853.94
2023-02-26T06:23:36.546Z,100853.88
2023-02-26T06:26:05.102Z,100867.06
2023-02-26T06:28:32.583Z,100863.84
2023-02-26T06:30:59.695Z,100867.44
2023-02-26T06:33:26.656Z,100872.75
2023-02-26T06:35:53.759Z,100876.69
2023-02-26T06:38:20.735Z,100879.56
2023-02-26T06:40:48.524Z,100879.47
2023-02-26T06:43:15.528Z,100892.59
2023-02-26T06:45:42.504Z,100899.59
2023-02-26T06:48:09.438Z,100899.78
2023-02-26T06:50:36.507Z,100909.44
2023-02-26T06:53:03.497Z,100914.50
2023-02-26T06:55:30.478Z,100904.22
2023-02-26T06:57:58.417Z,100898.66
2023-02-26T07:00:26.536Z,100902.34
2023-02-26T07:02:53.514Z,100911.00
2023-02-26T07:05:21.161Z,100920.09
2023-02-26T07:07:48.557Z,100918.78
2023-02-26T07:10:15.474Z,100924.91
2023-02-26T07:12:42.613Z,100922.50
2023-02-26T07:15:10.117Z,100925.56
2023-02-26T07:17:37.075Z,100939.47
2023-02-26T07:20:10.091Z,100941.81
2023-02-26T07:22:38.445Z,100954.50
2023-02-26T07:25:07.246Z,100957.06
2023-02-26T07:27:34.593Z,100960.41
2023-02-26T07:30:02.125Z,100961.41
2023-02-26T07:32:29.217Z,100960.69
2023-02-26T07:34:56.317Z,100970.56
2023-02-26T07:37:24.308Z,100981.47
2023-02-26T07:39:51.758Z,100981.47
2023-02-26T07:42:18.937Z,100999.41
2023-02-26T07:44:46.009Z,100997.75
2023-02-26T07:47:13.750Z,100994.72
2023-02-26T07:49:40.731Z,101000.69
2023-02-26T07:52:08.288Z,100996.81
2023-02-26T07:54:38.158Z,100997.84
2023-02-26T07:57:05.200Z,100999.66
2023-02-26T07:59:32.243Z,101005.69
2023-02-26T08:01:59.183Z,101008.47
2023-02-26T08:04:26.301Z,101006.75
2023-02-26T08:06:57.343Z,101006.63
2023-02-26T08:09:24.350Z,101002.75
2023-02-26T08:11:51.293Z,101008.69
2023-02-26T08:14:18.445Z,101017.56
2023-02-26T08:16:45.428Z,101024.47
2023-02-26T08:19:12.635Z,101021.03
2023-02-26T08:21:39.596Z,101029.34
2023-02-26T08:24:06.787Z,101026.81
2023-02-26T08:26:37.341Z,101029.53
2023-02-26T08:29:05.254Z,101038.69
2023-02-26T08:31:34.533Z,101040.94
2023-02-26T08:34:01.961Z,101047.84
2023-02-26T08:36:28.880Z,101043.94
2023-02-26T08:38:55.825Z,101049.56
2023-02-26T08:41:23.410Z,101047.59
2023-02-26T08:43:51.397Z,101053.31
2023-02-26T08:46:18.409Z,101052.34
2023-02-26T08:48:45.404Z,101060.22
2023-02-26T08:51:12.357Z,101062.56
2023-02-26T08:53:40.324Z,101064.34
2023-02-26T08:56:07.541Z,101071.91
2023-02-26T08:58:34.485Z,101067.22
2023-02-26T09:01:01.394Z,101066.66
2023-02-26T09:03:28.353Z,101072.94
2023-02-26T09:05:55.311Z,101078.38
2023-02-26T09:08:22.273Z,101070.59
2023-02-26T09:10:49.388Z,101075.94
2023-02-26T09:13:16.369Z,101077.09
2023-02-26T09:15:43.391Z,101081.78
2023-02-26T09:18:15.426Z,101080.13
2023-02-26T09:20:44.184Z,101090.75
2023-02-26T09:23:12.402Z,101084.94
2023-02-26T09:25:39.465Z,101096.31
2023-02-26T09:28:06.532Z,101105.34
2023-02-26T09:30:33.730Z,101103.75
2023-02-26T09:33:00.719Z,101121.47
2023-02-26T09:35:27.729Z,101133.66
2023-02-26T09:37:54.760Z,101123.34
2023-02-26T09:40:29.085Z,101133.13
2023-02-26T09:43:43.321Z,101132.66
2023-02-26T09:46:34.375Z,101139.00
2023-02-26T09:49:38.523Z,101141.53
2023-02-26T09:52:49.236Z,101146.13
2023-02-26T09:55:31.556Z,101142.38
2023-02-26T09:58:05.392Z,101150.94
2023-02-26T10:00:56.169Z,101154.22
2023-02-26T10:03:54.529Z,101164.13
2023-02-26T10:06:33.961Z,101160.66
2023-02-26T10:09:19.344Z,101161.25
2023-02-26T10:11:46.316Z,101173.78
2023-02-26T10:14:23.553Z,101162.59
2023-02-26T10:16:58.490Z,101181.63
2023-02-26T10:19:34.933Z,101173.38
2023-02-26T10:22:15.759Z,101180.16
2023-02-26T10:24:52.246Z,101188.59
2023-02-26T10:27:40.310Z,101186.13
2023-02-26T10:30:41.421Z,101189.47
2023-02-26T10:33:18.624Z,101190.81
2023-02-26T10:35:54.641Z,101196.09
2023-02-26T10:38:27.556Z,101201.38
2023-02-26T10:41:13.186Z,101209.19
2023-02-26T10:43:53.164Z,101210.75
2023-02-26T10:46:46.430Z,101218.91
2023-02-26T10:49:42.541Z,101210.69
2023-02-26T10:52:18.650Z,101220.59
2023-02-26T10:55:04.050Z,101216.97
2023-02-26T10:57:36.176Z,101225.94
2023-02-26T11:00:06.468Z,101231.78
2023-02-26T11:02:46.687Z,101212.34
2023-02-26T11:05:28.999Z,101218.47
2023-02-26T11:08:04.892Z,101225.59
2023-02-26T11:10:49.553Z,101221.06
2023-02-26T11:13:16.488Z,101224.94
2023-02-26T11:15:47.327Z,101225.16
2023-02-26T11:18:20.723Z,101231.53
2023-02-26T11:20:49.161Z,101225.84
2023-02-26T11:23:22.234Z,101239.28
2023-02-26T11:26:16.769Z,101257.94
2023-02-26T11:28:50.472Z,101253.72
2023-02-26T11:31:21.574Z,101252.97
2023-02-26T11:34:11.917Z,101249.16
2023-02-26T11:36:42.690Z,101254.19
2023-02-26T11:39:26.186Z,101254.78
2023-02-26T11:41:57.637Z,101268.09
2023-02-26T11:44:46.360Z,101257.28
2023-02-26T11:47:30.173Z,101268.50
2023-02-26T11:50:05.861Z,101274.09
2023-02-26T11:52:41.364Z,101271.28
2023-02-26T11:55:28.260Z,101268.41
2023-02-26T11:57:56.614Z,101266.09
2023-02-26T12:00:40.090Z,101281.88
2023-02-26T12:03:16.672Z,101277.84
2023-02-26T12:05:43.798Z,101278.59
2023-02-26T12:08:42.226Z,101268.47
2023-02-26T12:11:27.888Z,101267.34
2023-02-26T12:14:32.876Z,101268.03
2023-02-26T12:17:56.340Z,101267.97
2023-02-26T12:20:27.494Z,101274.25
2023-02-26T12:23:34.623Z,101284.78
2023-02-26T12:26:32.448Z,101274.03
2023-02-26T12:30:03.377Z,101282.31
2023-02-26T12:32:47.580Z,101292.88
2023-02-26T12:35:55.826Z,101291.25
2023-02-26T12:38:54.447Z,101285.75
2023-02-26T12:41:35.884Z,101307.47
2023-02-26T12:44:32.270Z,101286.59
2023-02-26T12:47:31.220Z,101290.38
2023-02-26T12:50:40.138Z,101295.28
2023-02-26T12:53:51.520Z,101298.69
2023-02-26T12:56:52.607Z,101300.25
2023-02-26T12:59:48.963Z,101295.66
2023-02-26T13:02:36.849Z,101299.16
2023-02-26T13:05:35.369Z,101295.69
2023-02-26T13:08:33.322Z,101296.06
2023-02-26T13:11:52.098Z,101307.38
2023-02-26T13:15:02.002Z,101307.97
2023-02-26T13:17:37.592Z,101310.47
2023-02-26T13:20:18.372Z,101319.78
2023-02-26T13:22:59.328Z,101314.59
2023-02-26T13:25:48.688Z,101328.50
2023-02-26T13:28:34.746Z,101325.91
2023-02-26T13:31:04.193Z,101325.28
2023-02-26T13:33:33.716Z,101336.63
2023-02-26T13:36:02.680Z,101336.50
2023-02-26T13:38:54.969Z,101339.16
2023-02-26T13:42:09.052Z,101332.44
2023-02-26T13:45:00.629Z,101329.09
2023-02-26T13:48:17.941Z,101334.19
2023-02-26T13:50:57.694Z,101334.28
2023-02-26T13:53:28.224Z,101331.28
2023-02-26T13:56:07.369Z,101330.94
2023-02-26T13:58:39.597Z,101335.97
2023-02-26T14:01:32.454Z,101346.16
2023-02-26T14:04:23.522Z,101340.78
2023-02-26T14:07:12.151Z,101336.34
2023-02-26T14:10:05.261Z,101348.34
2023-02-26T14:12:38.289Z,101339.97
2023-02-26T14:15:29.315Z,101353.34
2023-02-26T14:18:21.187Z,101359.09
2023-02-26T14:20:48.233Z,101369.28
2023-02-26T14:23:35.847Z,101359.06
2023-02-26T14:26:12.446Z,101355.88
2023-02-26T14:29:14.988Z,101360.31
2023-02-26T14:31:51.177Z,101356.44
2023-02-26T14:34:30.087Z,101357.66
2023-02-26T14:37:07.023Z,101358.09
2023-02-26T14:40:09.185Z,101355.81
2023-02-26T14:42:45.405Z,101360.16
2023-02-26T14:45:39.008Z,101359.06
2023-02-26T14:48:13.373Z,101373.19
2023-02-26T14:50:55.218Z,101385.72
2023-02-26T14:53:43.184Z,101378.72
2023-02-26T14:56:27.964Z,101379.53
2023-02-26T15:00:01.636Z,101398.50
2023-02-26T15:03:02.494Z,101395.63
2023-02-26T15:06:03.057Z,101391.25
2023-02-26T15:09:09.427Z,101402.53
2023-02-26T15:11:52.552Z,101390.47
2023-02-26T15:14:31.435Z,101396.50
2023-02-26T15:17:46.915Z,101388.72
2023-02-26T15:21:08.753Z,101387.03
2023-02-26T15:23:52.637Z,101390.22
2023-02-26T15:26:29.974Z,101392.69
2023-02-26T15:28:58.937Z,101396.78
2023-02-26T15:31:36.360Z,101397.44
2023-02-26T15:34:04.092Z,101392.78
2023-02-26T15:36:32.511Z,101395.94
2023-02-26T15:39:03.843Z,101406.63
2023-02-26T15:41:32.876Z,101395.78
2023-02-26T15:44:10.718Z,101407.59
2023-02-26T15:46:44.348Z,101408.31
2023-02-26T15:49:39.284Z,101403.44
2023-02-26T15:52:09.317Z,101408.66
2023-02-26T15:54:48.215Z,101414.03
2023-02-26T15:57:17.838Z,101408.34
2023-02-26T15:59:49.780Z,101412.66
2023-02-26T16:02:22.573Z,101413.47
2023-02-26T16:04:49.592Z,101412.91
2023-02-26T16:07:16.534Z,101421.03
2023-02-26T16:09:49.060Z,101423.06
2023-02-26T16:12:21.967Z,101425.16
2023-02-26T16:15:01.064Z,101423.75
2023-02-26T16:17:35.267Z,101420.88
2023-02-26T16:20:14.934Z,101430.66
2023-02-26T16:22:59.231Z,101428.56
2023-02-26T16:25:56.369Z,101430.72
2023-02-26T16:28:51.101Z,101433.84
2023-02-26T16:31:25.662Z,101436.97
2023-02-26T16:34:04.249Z,101443.63
2023-02-26T16:36:37.922Z,101445.09
2023-02-26T16:39:07.752Z,101452.63
2023-02-26T16:41:38.550Z,101449.78
2023-02-26T16:44:31.521Z,101468.38
2023-02-26T16:46:59.559Z,101459.59
2023-02-26T16:49:38.953Z,101462.78
2023-02-26T16:52:06.752Z,101469.44
2023-02-26T16:54:41.588Z,101481.22
2023-02-26T16:57:19.683Z,101481.97
2023-02-26T16:59:56.703Z,101483.47
2023-02-26T17:02:28.433Z,101488.44
2023-02-26T17:05:08.622Z,101489.25
2023-02-26T17:07:46.015Z,101496.25
2023-02-26T17:10:33.004Z,101498.84
2023-02-26T17:13:24.898Z,101506.56
2023-02-26T17:15:54.245Z,101505.47
2023-02-26T17:18:22.220Z,101511.34
2023-02-26T17:20:50.017Z,101508.59
2023-02-26T17:23:19.021Z,101512.69
2023-02-26T17:25:50.361Z,101513.38
2023-02-26T17:28:24.569Z,101515.06
2023-02-26T17:30:52.865Z,101526.44
2023-02-26T17:33:20.886Z,101522.44
2023-02-26T17:35:48.608Z,101529.84
2023-02-26T17:38:17.001Z,101537.09
2023-02-26T17:40:47.642Z,101539.34
2023-02-26T17:43:14.735Z,101535.50
2023-02-26T17:45:42.166Z,101541.84
2023-02-26T17:48:11.288Z,101541.84
2023-02-26T17:50:51.974Z,101546.19
2023-02-26T17:53:22.133Z,101541.75
2023-02-26T17:55:53.196Z,101544.94
2023-02-26T17:58:30.270Z,101546.19
2023-02-26T18:00:57.823Z,101548.06
2023-02-26T18:03:24.844Z,101547.38
2023-02-26T18:05:54.672Z,101555.47
2023-02-26T18:08:25.872Z,101563.53
2023-02-26T18:10:54.321Z,101568.09
2023-02-26T18:13:22.970Z,101565.97
2023-02-26T18:15:53.077Z,101567.16
2023-02-26T18:18:21.670Z,101570.28
2023-02-26T18:20:48.964Z,101574.13
2023-02-26T18:23:16.814Z,101572.94
2023-02-26T18:25:50.405Z,101572.69
2023-02-26T18:28:23.242Z,101573.09
2023-02-26T18:30:51.219Z,101571.09
2023-02-26T18:33:19.189Z,101579.44
2023-02-26T18:35:54.961Z,101579.13
2023-02-26T18:38:25.985Z,101585.75
2023-02-26T18:40:53.814Z,101583.00
2023-02-26T18:43:21.364Z,101581.94
2023-02-26T18:45:50.623Z,101588.56
2023-02-26T18:48:21.153Z,101590.03
2023-02-26T18:50:49.228Z,101601.78
2023-02-26T18:53:17.610Z,101589.56
2023-02-26T18:55:45.260Z,101599.63
2023-02-26T18:58:12.372Z,101608.13
2023-02-26T19:00:39.328Z,101608.72
2023-02-26T19:03:06.256Z,101613.63
2023-02-26T19:05:33.150Z,101622.84
2023-02-26T19:08:01.032Z,101620.88
2023-02-26T19:10:31.775Z,101621.53
2023-02-26T19:12:59.067Z,101626.47
2023-02-26T19:15:27.014Z,101628.06
2023-02-26T19:17:54.096Z,101626.19
2023-02-26T19:20:21.088Z,101633.69
2023-02-26T19:22:48.885Z,101634.38
2023-02-26T19:25:16.051Z,101635.94
2023-02-26T19:27:42.931Z,101636.72
2023-02-26T19:30:10.667Z,101639.09
2023-02-26T19:32:37.760Z,101639.91
2023-02-26T19:35:05.195Z,101647.50
2023-02-26T19:37:32.320Z,101641.38
2023-02-26T19:39:59.297Z,101636.91
2023-02-26T19:42:28.358Z,101641.84
2023-02-26T19:44:55.309Z,101644.09
2023-02-26T19:47:22.255Z,101647.44
2023-02-26T19:49:49.187Z,101649.03
2023-02-26T19:52:16.146Z,101647.16
2023-02-26T19:54:43.081Z,101648.84
2023-02-26T19:57:10.031Z,101648.84
2023-02-26T19:59:37.016Z,101658.31
2023-02-26T20:02:05.501Z,101654.75
2023-02-26T20:04:33.377Z,101658.09
2023-02-26T20:07:00.263Z,101659.78
2023-02-26T20:09:28.007Z,101669.16
2023-02-26T20:11:55.128Z,101672.50
2023-02-26T20:14:22.089Z,101680.09
2023-02-26T20:16:49.024Z,101684.25
2023-02-26T20:19:16.394Z,101689.25
2023-02-26T20:21:43.645Z,101691.75
2023-02-26T20:24:11.077Z,101686.50
2023-02-26T20:26:38.142Z,101695.91
2023-02-26T20:29:05.246Z,101688.88
2023-02-26T20:31:32.214Z,101694.78
2023-02-26T20:33:59.224Z,101697.47
2023-02-26T20:36:26.373Z,101703.47
2023-02-26T20:38:53.289Z,101704.25
2023-02-26T20:41:20.406Z,101700.81
2023-02-26T20:43:47.743Z,101702.47
2023-02-26T20:46:14.822Z,101701.59
2023-02-26T20:48:43.653Z,101710.06
2023-02-26T20:51:12.086Z,101699.81
2023-02-26T20:53:39.997Z,101708.97
2023-02-26T20:56:07.565Z,101711.53
2023-02-26T20:58:34.717Z,101713.88
2023-02-26T21:01:01.686Z,101716.38
2023-02-26T21:03:28.646Z,101722.28
2023-02-26T21:05:56.277Z,101722.94
2023-02-26T21:08:23.525Z,101721.94
2023-02-26T21:10:53.540Z,101729.44
2023-02-26T21:13:20.831Z,101725.06
2023-02-26T21:15:50.208Z,101737.91
2023-02-26T21:18:17.356Z,101724.84
2023-02-26T21:20:44.291Z,101729.97
2023-02-26T21:23:11.319Z,101744.41
2023-02-26T21:25:39.580Z,101742.63
2023-02-26T21:28:06.649Z,101749.44
2023-02-26T21:30:33.595Z,101741.72
2023-02-26T21:33:00.495Z,101747.75
2023-02-26T21:35:27.501Z,101745.38
2023-02-26T21:37:54.661Z,101751.75
2023-02-26T21:40:22.699Z,101752.38
2023-02-26T21:42:49.651Z,101758.97
2023-02-26T21:45:16.578Z,101761.28
2023-02-26T21:47:43.565Z,101755.78
2023-02-26T21:50:11.245Z,101755.22
2023-02-26T21:52:38.198Z,101756.13
2023-02-26T21:55:06.108Z,101755.91
2023-02-26T21:57:33.039Z,101765.97
2023-02-26T22:00:00.043Z,101767.53
2023-02-26T22:02:27.078Z,101765.84
2023-02-26T22:04:54.142Z,101768.19
2023-02-26T22:07:21.028Z,101768.97
2023-02-26T22:09:49.107Z,101767.78
2023-02-26T22:12:17.286Z,101766.56
2023-02-26T22:14:44.575Z,101769.50
2023-02-26T22:17:11.597Z,101758.66
2023-02-26T22:19:38.509Z,101764.16
2023-02-26T22:22:05.496Z,101770.84
2023-02-26T22:24:32.567Z,101765.72
2023-02-26T22:26:59.466Z,101773.31
2023-02-26T22:29:26.384Z,101772.41
2023-02-26T22:31:54.076Z,101777.44
2023-02-26T22:34:21.064Z,101778.31
2023-02-26T22:36:48.167Z,101786.81
2023-02-26T22:39:15.074Z,101795.50
2023-02-26T22:41:42.065Z,101790.59
2023-02-26T22:44:09.044Z,101798.72
2023-02-26T22:46:35.993Z,101800.84
2023-02-26T22:49:03.202Z,101796.91
2023-02-26T22:51:32.279Z,101797.25
2023-02-26T22:54:01.101Z,101807.97
2023-02-26T22:56:28.701Z,101806.72
2023-02-26T22:58:56.774Z,101808.84
2023-02-26T23:01:24.068Z,101808.28
2023-02-26T23:03:51.038Z,101805.09
2023-02-26T23:06:18.090Z,101809.69
2023-02-26T23:08:45.075Z,101809.78
2023-02-26T23:11:12.230Z,101807.22
2023-02-26T23:13:39.329Z,101808.91
2023-02-26T23:16:09.311Z,101814.03
2023-02-26T23:18:37.131Z,101815.03
2023-02-26T23:21:08.265Z,101818.63
2023-02-26T23:23:35.454Z,101808.34
2023-02-26T23:26:02.767Z,101805.09
2023-02-26T23:28:30.353Z,101807.75
2023-02-26T23:30:57.366Z,101815.38
2023-02-26T23:33:24.567Z,101808.34
2023-02-26T23:35:51.845Z,101803.44
2023-02-26T23:38:18.836Z,101811.41
2023-02-26T23:40:45.743Z,101819.44
2023-02-26T23:43:12.635Z,101807.84
2023-02-26T23:45:39.639Z,101802.59
2023-02-26T23:48:06.817Z,101819.81
2023-02-26T23:50:33.811Z,101822.25
2023-02-26T23:53:00.756Z,101821.13
2023-02-26T23:55:27.729Z,101828.41
2023-02-26T23:57:54.599Z,101811.66
